Time;durP1;ratioP1;P1;durP2;ratioP2;P2;SDS_P1;SDS_P2;PMS_P1;PMS_P2;Temp;Humidity;BMP_temperature;BMP_pressure;BME280_temperature;BME280_humidity;BME280_pressure;Samples;Min_cycle;Max_cycle;Signal;HPM_P1;HPM_P2
2022/05/02 00:02:03;;;;;;;2.87;2.17;;;20.30;85.40;;;;;;5064489;28;20456;-63
2022/05/02 00:04:37;;;;;;;2.17;1.97;;;20.20;90.30;;;;;;5064387;28;20460;-63
2022/05/02 00:07:07;;;;;;;2.20;2.10;;;20.10;90.30;;;;;;5064548;28;20460;-64
2022/05/02 00:09:40;;;;;;;1.93;1.70;;;20.10;91.30;;;;;;5063685;28;20427;-63
2022/05/02 00:12:12;;;;;;;3.67;2.50;;;20.40;87.80;;;;;;5064820;28;20634;-64
2022/05/02 00:14:43;;;;;;;3.13;2.83;;;20.30;89.20;;;;;;5064459;28;20454;-63
2022/05/02 00:17:14;;;;;;;2.10;2.00;;;19.90;89.20;;;;;;5064317;28;20515;-64
2022/05/02 00:19:45;;;;;;;2.33;2.20;;;19.70;90.00;;;;;;5064290;28;20460;-64
2022/05/02 00:22:15;;;;;;;3.83;2.20;;;20.00;90.80;;;;;;5064099;28;20457;-63
2022/05/02 00:24:48;;;;;;;2.60;2.40;;;19.90;90.70;;;;;;5063494;28;20439;-64
2022/05/02 00:27:20;;;;;;;2.07;1.97;;;20.10;86.50;;;;;;5049068;28;20449;-64
2022/05/02 00:29:51;;;;;;;3.73;2.67;;;20.40;88.30;;;;;;5064244;28;20445;-63
2022/05/02 00:32:21;;;;;;;4.43;2.93;;;20.50;85.50;;;;;;5064178;28;20460;-64
2022/05/02 00:34:53;;;;;;;2.60;2.40;;;20.60;88.30;;;;;;5063648;28;20475;-63
2022/05/02 00:37:25;;;;;;;4.17;2.97;;;20.40;88.90;;;;;;5064117;28;20480;-63
2022/05/02 00:39:58;;;;;;;3.33;2.73;;;20.30;90.60;;;;;;5062830;28;20453;-64
2022/05/02 00:42:28;;;;;;;2.70;2.50;;;20.10;90.20;;;;;;5057700;28;20453;-64
2022/05/02 00:44:59;;;;;;;2.63;2.43;;;20.00;90.00;;;;;;5063930;28;20430;-64
2022/05/02 00:47:30;;;;;;;2.80;2.60;;;19.80;86.30;;;;;;5063780;28;20466;-65
2022/05/02 00:50:01;;;;;;;3.20;2.30;;;19.90;90.50;;;;;;5063373;28;20431;-65
2022/05/02 00:52:32;;;;;;;2.63;2.43;;;19.90;86.20;;;;;;5063785;28;20449;-65
2022/05/02 00:55:06;;;;;;;3.30;3.00;;;19.80;88.20;;;;;;5062453;28;20439;-65
2022/05/02 00:57:37;;;;;;;3.03;2.80;;;19.90;90.20;;;;;;5061719;28;20483;-64
2022/05/02 01:00:09;;;;;;;3.17;2.93;;;19.80;88.30;;;;;;5063388;28;20481;-64
2022/05/02 01:02:40;;;;;;;2.80;2.60;;;19.90;90.20;;;;;;5059631;28;20472;-66
2022/05/02 01:05:11;;;;;;;2.87;2.67;;;19.90;88.30;;;;;;5061135;28;20443;-64
2022/05/02 01:07:42;;;;;;;2.50;2.40;;;19.80;87.80;;;;;;5057067;28;20476;-63
2022/05/02 01:10:17;;;;;;;2.63;2.43;;;19.80;90.40;;;;;;5062631;28;20446;-66
2022/05/02 01:12:49;;;;;;;3.03;2.47;;;19.60;90.00;;;;;;5063131;28;20449;-66
2022/05/02 01:15:19;;;;;;;2.63;2.43;;;19.60;91.10;;;;;;5062327;28;20507;-65
2022/05/02 01:17:50;;;;;;;3.60;2.93;;;19.60;90.40;;;;;;5061251;28;20474;-66
2022/05/02 01:20:23;;;;;;;3.30;3.10;;;19.40;91.80;;;;;;5061729;28;20450;-67
2022/05/02 01:22:54;;;;;;;3.20;2.90;;;19.40;91.00;;;;;;5061125;28;20458;-66
2022/05/02 01:25:25;;;;;;;2.50;2.30;;;19.30;91.60;;;;;;5057796;28;20487;-66
2022/05/02 01:27:56;;;;;;;2.90;2.70;;;19.20;90.90;;;;;;5063215;28;20427;-64
2022/05/02 01:30:27;;;;;;;2.80;2.60;;;19.00;90.50;;;;;;5061332;28;20465;-65
2022/05/02 01:32:57;;;;;;;3.43;3.23;;;18.80;91.00;;;;;;5058587;28;20430;-63
2022/05/02 01:35:30;;;;;;;2.83;2.63;;;18.70;90.70;;;;;;5062630;28;20437;-64
2022/05/02 01:38:00;;;;;;;4.33;2.80;;;18.70;91.40;;;;;;5062539;28;20488;-64
2022/05/02 01:40:31;;;;;;;3.40;3.20;;;18.70;91.00;;;;;;5060001;28;20428;-64
2022/05/02 01:43:02;;;;;;;3.40;3.07;;;18.70;91.60;;;;;;5062046;28;20460;-64
2022/05/02 01:45:33;;;;;;;3.67;3.37;;;18.80;91.20;;;;;;5061343;28;20498;-64
2022/05/02 01:48:04;;;;;;;3.13;2.57;;;18.70;91.60;;;;;;5062273;28;20438;-64
2022/05/02 01:50:37;;;;;;;2.40;2.20;;;18.60;91.80;;;;;;5059701;28;21719;-65
2022/05/02 01:53:09;;;;;;;3.47;2.70;;;18.60;92.20;;;;;;5049683;28;20430;-64
2022/05/02 01:55:40;;;;;;;2.97;2.77;;;18.60;92.30;;;;;;5049672;28;20447;-65
2022/05/02 01:58:11;;;;;;;3.00;2.57;;;18.60;92.90;;;;;;5055071;28;20499;-63
2022/05/02 02:00:41;;;;;;;2.50;2.30;;;18.50;93.60;;;;;;5049115;28;20481;-63
2022/05/02 02:03:12;;;;;;;2.93;2.73;;;18.50;92.50;;;;;;5046125;28;20461;-64
2022/05/02 02:05:50;;;;;;;2.20;2.10;;;18.50;93.00;;;;;;5055603;28;20464;-64
2022/05/02 02:08:23;;;;;;;3.63;3.30;;;18.40;93.30;;;;;;5050558;28;20460;-64
2022/05/02 02:10:56;;;;;;;2.73;2.53;;;18.40;93.90;;;;;;5050203;28;20461;-63
2022/05/02 02:13:30;;;;;;;3.20;2.97;;;18.40;93.60;;;;;;5056642;28;20604;-63
2022/05/02 02:16:01;;;;;;;23.63;21.93;;;18.40;92.90;;;;;;5060227;28;20459;-64
2022/05/02 02:18:32;;;;;;;5.37;4.97;;;18.30;93.60;;;;;;5059184;28;20490;-63
2022/05/02 02:21:06;;;;;;;4.53;4.20;;;18.20;93.50;;;;;;5058905;28;20439;-63
2022/05/02 02:23:37;;;;;;;4.30;4.00;;;18.20;94.20;;;;;;5060998;28;20459;-64
2022/05/02 02:26:08;;;;;;;28.30;26.40;;;18.10;94.10;;;;;;5062014;28;20467;-65
2022/05/02 02:28:41;;;;;;;6.70;6.20;;;18.10;94.50;;;;;;5061839;28;20457;-63
2022/05/02 02:31:11;;;;;;;12.37;11.37;;;17.90;94.60;;;;;;5060153;28;20463;-64
2022/05/02 02:33:42;;;;;;;6.27;5.83;;;17.90;95.80;;;;;;5061498;28;20452;-63
2022/05/02 02:36:15;;;;;;;7.43;6.73;;;17.80;95.30;;;;;;5060762;28;20441;-62
2022/05/02 02:38:45;;;;;;;6.20;5.63;;;17.70;96.40;;;;;;5060482;28;20841;-63
2022/05/02 02:41:16;;;;;;;5.73;5.30;;;17.60;95.90;;;;;;5061029;28;20456;-64
2022/05/02 02:43:47;;;;;;;5.33;5.00;;;17.50;96.60;;;;;;5056356;28;20465;-63
2022/05/02 02:46:18;;;;;;;5.30;4.90;;;17.50;97.60;;;;;;5060836;28;20579;-64
2022/05/02 02:48:49;;;;;;;6.00;5.20;;;17.40;97.70;;;;;;5060761;28;20463;-64
2022/05/02 02:51:21;;;;;;;5.00;4.60;;;17.30;98.40;;;;;;5060436;28;20442;-64
2022/05/02 02:53:53;;;;;;;4.27;3.87;;;17.20;99.60;;;;;;5059584;28;20443;-64
2022/05/02 02:56:23;;;;;;;4.63;4.23;;;17.20;99.70;;;;;;5059616;28;20460;-66
2022/05/02 02:58:55;;;;;;;4.87;4.20;;;17.10;99.90;;;;;;5060228;28;20457;-63
2022/05/02 03:01:26;;;;;;;3.73;3.47;;;17.10;99.90;;;;;;5055990;28;20478;-64
2022/05/02 03:03:57;;;;;;;4.57;3.60;;;17.00;99.60;;;;;;5057632;28;20544;-63
2022/05/02 03:06:30;;;;;;;3.47;3.27;;;17.00;99.90;;;;;;5064391;28;20558;-63
2022/05/02 03:09:00;;;;;;;4.10;3.80;;;17.00;99.50;;;;;;5063023;28;20439;-63
2022/05/02 03:11:31;;;;;;;5.10;4.60;;;16.90;99.90;;;;;;5064949;28;20539;-63
2022/05/02 03:14:03;;;;;;;7.33;6.70;;;16.80;99.90;;;;;;5064365;28;20479;-64
2022/05/02 03:16:34;;;;;;;6.47;5.90;;;16.70;99.90;;;;;;5062382;28;20464;-65
2022/05/02 03:19:05;;;;;;;5.40;4.90;;;16.60;99.90;;;;;;5063819;28;20442;-64
2022/05/02 03:21:38;;;;;;;7.63;6.97;;;16.50;99.90;;;;;;5062852;28;20443;-64
2022/05/02 03:24:09;;;;;;;5.73;5.13;;;16.40;99.90;;;;;;5058748;28;20465;-64
2022/05/02 03:26:40;;;;;;;6.03;5.53;;;16.30;99.90;;;;;;5061744;28;20510;-64
2022/05/02 03:29:10;;;;;;;4.27;3.87;;;16.20;99.90;;;;;;5064554;28;20448;-65
2022/05/02 03:31:41;;;;;;;4.60;4.20;;;16.10;99.90;;;;;;5058190;28;20558;-65
2022/05/02 03:34:12;;;;;;;4.30;4.00;;;16.00;99.90;;;;;;5050141;28;20462;-65
2022/05/02 03:36:45;;;;;;;4.60;4.30;;;15.90;99.90;;;;;;5061661;28;20452;-65
2022/05/02 03:39:16;;;;;;;4.70;4.30;;;15.80;99.90;;;;;;5057934;28;20445;-65
2022/05/02 03:41:46;;;;;;;3.77;3.47;;;15.80;99.90;;;;;;5061822;28;20462;-64
2022/05/02 03:44:17;;;;;;;4.03;3.73;;;15.70;99.90;;;;;;5061708;28;20790;-65
2022/05/02 03:46:48;;;;;;;3.87;3.57;;;15.70;99.90;;;;;;5061845;28;20463;-64
2022/05/02 03:49:19;;;;;;;3.63;3.40;;;15.70;99.90;;;;;;5061524;28;20448;-64
2022/05/02 03:51:51;;;;;;;3.67;3.37;;;15.60;99.90;;;;;;5062614;28;20535;-64
2022/05/02 03:54:23;;;;;;;5.23;4.83;;;15.60;99.90;;;;;;5063162;28;20475;-64
2022/05/02 03:56:53;;;;;;;5.53;5.13;;;15.50;99.90;;;;;;5056408;28;20451;-64
2022/05/02 03:59:24;;;;;;;4.90;4.50;;;15.50;99.90;;;;;;5063513;28;20466;-65
2022/05/02 04:01:55;;;;;;;5.47;4.97;;;15.40;99.90;;;;;;5065199;28;20799;-64
2022/05/02 04:04:26;;;;;;;6.93;6.20;;;15.30;99.90;;;;;;5058216;28;20850;-65
2022/05/02 04:06:59;;;;;;;6.47;5.97;;;15.20;99.90;;;;;;5047969;28;20464;-65
2022/05/02 04:09:29;;;;;;;6.50;5.90;;;15.10;99.90;;;;;;5061131;28;20984;-65
2022/05/02 04:12:01;;;;;;;7.17;6.57;;;15.10;99.90;;;;;;5064519;28;20441;-64
2022/05/02 04:14:32;;;;;;;7.30;6.60;;;15.00;99.90;;;;;;5062881;28;20487;-64
2022/05/02 04:17:02;;;;;;;6.70;6.20;;;15.00;99.90;;;;;;5067346;28;20475;-64
2022/05/02 04:19:33;;;;;;;6.43;5.83;;;14.90;99.90;;;;;;5063309;28;20532;-65
2022/05/02 04:22:06;;;;;;;6.50;5.70;;;14.90;99.90;;;;;;5066687;28;20496;-64
2022/05/02 04:24:37;;;;;;;5.77;5.20;;;14.90;99.90;;;;;;5062665;28;20448;-63
2022/05/02 04:27:08;;;;;;;5.97;5.47;;;14.90;99.90;;;;;;5051464;28;20444;-64
2022/05/02 04:29:39;;;;;;;6.23;5.63;;;14.90;99.90;;;;;;5062297;28;20460;-64
2022/05/02 04:32:11;;;;;;;5.90;5.47;;;14.90;99.90;;;;;;5063087;28;20464;-64
2022/05/02 04:34:42;;;;;;;8.33;5.60;;;14.90;99.90;;;;;;5059413;28;20598;-63
2022/05/02 04:37:15;;;;;;;5.70;5.20;;;14.90;99.90;;;;;;5050928;28;20444;-64
2022/05/02 04:39:46;;;;;;;6.10;5.50;;;14.90;99.90;;;;;;5065302;28;21006;-64
2022/05/02 04:42:16;;;;;;;6.23;5.37;;;14.80;99.90;;;;;;5062803;28;20483;-63
2022/05/02 04:44:47;;;;;;;5.77;5.20;;;14.90;99.90;;;;;;5063173;28;20947;-64
2022/05/02 04:47:19;;;;;;;5.43;4.93;;;14.80;99.90;;;;;;5063878;28;20457;-64
2022/05/02 04:49:56;;;;;;;5.50;5.10;;;14.80;99.90;;;;;;5065772;28;20460;-64
2022/05/02 04:52:28;;;;;;;5.43;5.00;;;14.70;99.90;;;;;;5063786;28;20587;-64
2022/05/02 04:54:59;;;;;;;6.23;5.47;;;14.60;99.90;;;;;;5057393;28;20460;-64
2022/05/02 04:57:30;;;;;;;5.90;5.30;;;14.60;99.90;;;;;;5064029;28;20472;-64
2022/05/02 05:00:01;;;;;;;5.90;5.40;;;14.60;99.90;;;;;;5065108;28;20479;-64
2022/05/02 05:02:32;;;;;;;6.50;5.53;;;14.50;99.90;;;;;;5063296;28;20467;-64
2022/05/02 05:05:03;;;;;;;6.17;5.67;;;14.50;99.90;;;;;;5061741;28;20506;-64
2022/05/02 05:07:37;;;;;;;6.87;5.57;;;14.50;99.90;;;;;;5061018;28;20449;-65
2022/05/02 05:10:09;;;;;;;5.90;5.40;;;14.50;99.90;;;;;;5058245;28;20458;-64
2022/05/02 05:12:56;;;;;;;5.57;5.13;;;14.40;99.90;;;;;;5062146;28;20841;-65
2022/05/02 05:18:38;;;;;;;7.07;6.40;;;14.40;99.90;;;;;;5062196;28;20575;-65
2022/05/02 05:21:16;;;;;;;6.50;6.00;;;14.30;99.90;;;;;;5063093;28;20952;-63
2022/05/02 05:24:28;;;;;;;6.93;6.30;;;14.30;99.90;;;;;;5062245;28;20536;-63
2022/05/02 05:27:12;;;;;;;6.67;6.10;;;14.30;99.90;;;;;;5032494;28;20478;-63
2022/05/02 05:29:52;;;;;;;7.13;6.53;;;14.30;99.90;;;;;;5071247;28;20927;-63
2022/05/02 05:32:30;;;;;;;6.60;5.97;;;14.30;99.90;;;;;;5063028;28;20459;-63
2022/05/02 05:35:06;;;;;;;7.63;6.80;;;14.20;99.90;;;;;;5046978;28;20440;-63
2022/05/02 05:38:02;;;;;;;7.00;6.37;;;14.30;99.90;;;;;;5063434;28;20444;-64
2022/05/02 05:40:37;;;;;;;7.57;6.80;;;14.30;99.90;;;;;;5062044;28;20467;-64
2022/05/02 05:43:35;;;;;;;7.83;7.13;;;14.20;99.90;;;;;;5062542;28;20794;-64
2022/05/02 05:46:30;;;;;;;8.70;7.47;;;14.20;99.90;;;;;;5067762;28;20491;-64
2022/05/02 05:49:10;;;;;;;9.87;8.10;;;14.30;99.90;;;;;;5052080;28;20464;-64
2022/05/02 05:51:49;;;;;;;8.53;7.53;;;14.20;99.90;;;;;;5061043;28;20494;-64
2022/05/02 05:54:39;;;;;;;7.97;7.23;;;14.20;99.90;;;;;;5054162;28;20469;-64
2022/05/02 05:57:25;;;;;;;10.43;8.20;;;14.10;99.90;;;;;;5061011;28;20540;-64
2022/05/02 06:00:06;;;;;;;8.73;7.97;;;14.10;99.90;;;;;;5061336;28;20496;-64
2022/05/02 06:03:01;;;;;;;10.00;9.10;;;14.10;99.90;;;;;;5060632;28;20460;-64
2022/05/02 06:05:39;;;;;;;11.87;10.73;;;14.10;99.90;;;;;;5051154;28;20525;-64
2022/05/02 06:08:12;;;;;;;12.47;11.30;;;14.10;99.90;;;;;;5060139;28;20460;-64
2022/05/02 06:10:44;;;;;;;12.57;11.43;;;14.20;99.90;;;;;;5060991;28;20459;-63
2022/05/02 06:13:18;;;;;;;11.30;10.20;;;14.10;99.90;;;;;;5060423;28;20444;-64
2022/05/02 06:19:02;;;;;;;10.63;9.73;;;14.10;99.90;;;;;;5058609;28;20644;-64
2022/05/02 06:21:34;;;;;;;11.07;10.07;;;14.10;99.90;;;;;;5060936;28;20505;-63
2022/05/02 06:24:10;;;;;;;10.97;9.97;;;14.10;99.90;;;;;;5060140;28;20483;-64
2022/05/02 06:26:42;;;;;;;9.90;9.10;;;14.10;99.90;;;;;;5060600;28;20472;-63
2022/05/02 06:29:17;;;;;;;10.60;9.57;;;14.00;99.90;;;;;;5061633;28;20456;-63
2022/05/02 06:31:52;;;;;;;10.50;9.50;;;14.00;99.90;;;;;;5061269;28;20478;-63
2022/05/02 06:34:28;;;;;;;9.70;8.87;;;14.00;99.90;;;;;;5061023;28;20954;-63
2022/05/02 06:37:31;;;;;;;9.43;8.57;;;13.90;99.90;;;;;;5060653;28;20452;-63
2022/05/02 06:40:10;;;;;;;11.00;9.00;;;13.90;99.90;;;;;;5062893;28;20563;-63
2022/05/02 06:42:47;;;;;;;8.70;7.80;;;13.90;99.90;;;;;;5064793;28;20507;-63
2022/05/02 06:45:27;;;;;;;10.17;8.77;;;13.90;99.90;;;;;;5064630;28;20468;-63
2022/05/02 06:48:24;;;;;;;8.97;8.20;;;13.80;99.90;;;;;;5063368;28;20470;-64
2022/05/02 06:50:58;;;;;;;9.40;8.60;;;13.80;99.90;;;;;;5064919;28;20482;-64
2022/05/02 06:53:49;;;;;;;9.80;8.50;;;13.80;99.90;;;;;;5063113;28;20459;-64
2022/05/02 06:56:29;;;;;;;9.17;8.37;;;13.80;99.90;;;;;;5058414;28;20444;-63
2022/05/02 06:59:07;;;;;;;9.53;8.70;;;13.80;99.90;;;;;;5063732;28;20502;-63
2022/05/02 07:01:49;;;;;;;8.13;7.43;;;13.80;99.90;;;;;;5064816;28;20452;-63
2022/05/02 07:04:36;;;;;;;8.13;7.13;;;13.80;99.90;;;;;;5063921;28;20510;-64
2022/05/02 07:07:28;;;;;;;7.10;6.50;;;13.90;99.90;;;;;;5063351;28;20465;-64
2022/05/02 07:10:06;;;;;;;8.07;7.30;;;13.90;99.90;;;;;;5063537;28;20472;-64
2022/05/02 07:12:42;;;;;;;7.40;6.70;;;14.00;99.90;;;;;;5064769;28;20468;-64
2022/05/02 07:15:20;;;;;;;8.23;7.53;;;14.10;99.90;;;;;;5062789;28;20554;-65
2022/05/02 07:18:04;;;;;;;6.90;6.23;;;14.10;99.90;;;;;;5064267;28;20468;-63
2022/05/02 07:20:56;;;;;;;6.70;6.10;;;14.20;99.90;;;;;;5063552;28;20518;-64
2022/05/02 07:23:50;;;;;;;6.80;6.30;;;14.30;99.90;;;;;;5059585;28;20542;-64
2022/05/02 07:26:21;;;;;;;7.27;6.57;;;14.30;99.90;;;;;;5064968;28;20468;-64
2022/05/02 07:28:53;;;;;;;6.97;6.27;;;14.40;99.90;;;;;;5062838;28;20460;-64
2022/05/02 07:31:25;;;;;;;6.00;5.50;;;14.30;99.90;;;;;;5055954;28;20491;-64
2022/05/02 07:33:59;;;;;;;6.23;5.70;;;14.40;99.90;;;;;;5063899;28;20460;-63
2022/05/02 07:36:33;;;;;;;6.27;5.77;;;14.40;99.90;;;;;;5063119;28;20472;-64
2022/05/02 07:39:07;;;;;;;5.90;5.40;;;14.40;99.90;;;;;;5063843;28;20460;-63
2022/05/02 07:41:39;;;;;;;5.27;4.77;;;14.40;99.90;;;;;;5064273;28;20464;-63
2022/05/02 07:44:12;;;;;;;5.97;5.47;;;14.40;99.90;;;;;;5064245;28;20471;-64
2022/05/02 07:46:45;;;;;;;6.10;4.97;;;14.40;99.90;;;;;;5063150;28;20468;-64
2022/05/02 07:49:25;;;;;;;5.13;4.73;;;14.30;99.90;;;;;;5062046;28;20461;-63
2022/05/02 07:51:58;;;;;;;4.30;4.00;;;14.30;99.90;;;;;;5063197;28;20468;-63
2022/05/02 07:54:32;;;;;;;4.30;3.90;;;14.20;99.90;;;;;;5058634;28;20452;-62
2022/05/02 07:57:05;;;;;;;3.97;3.53;;;14.20;99.90;;;;;;5063457;28;20972;-63
2022/05/02 07:59:38;;;;;;;2.73;2.50;;;14.10;99.90;;;;;;5061255;28;20498;-63
2022/05/02 08:02:10;;;;;;;3.80;2.80;;;14.00;99.90;;;;;;5062746;28;20681;-64
2022/05/02 08:04:44;;;;;;;2.20;2.00;;;14.00;99.90;;;;;;5062828;28;20464;-63
2022/05/02 08:07:17;;;;;;;5.27;2.83;;;14.00;99.90;;;;;;5063197;28;20831;-63
2022/05/02 08:10:15;;;;;;;2.47;2.27;;;14.00;99.90;;;;;;5063030;28;20460;-63
2022/05/02 08:12:54;;;;;;;1.97;1.87;;;13.90;99.90;;;;;;5063184;28;20468;-63
2022/05/02 08:15:27;;;;;;;2.60;1.83;;;13.80;99.90;;;;;;5054773;28;20535;-63
2022/05/02 08:18:31;;;;;;;1.83;1.73;;;13.80;99.90;;;;;;5062246;28;20460;-63
2022/05/02 08:21:09;;;;;;;1.90;1.60;;;13.70;99.90;;;;;;5056815;28;20503;-63
2022/05/02 08:27:28;;;;;;;1.90;1.37;;;13.70;99.90;;;;;;5051656;28;20468;-63
2022/05/02 08:30:08;;;;;;;1.40;1.10;;;13.70;99.90;;;;;;5063026;28;20460;-63
2022/05/02 08:32:45;;;;;;;1.83;1.23;;;13.60;99.90;;;;;;5063327;28;20468;-63
2022/05/02 08:35:18;;;;;;;0.80;0.80;;;13.60;99.90;;;;;;5063639;28;20491;-63
2022/05/02 08:38:08;;;;;;;1.00;0.90;;;13.50;99.90;;;;;;5061804;28;20476;-63
2022/05/02 08:41:21;;;;;;;1.27;1.17;;;13.50;99.90;;;;;;5055398;28;20496;-63
2022/05/02 08:44:35;;;;;;;1.17;1.07;;;13.40;99.90;;;;;;5053930;28;20460;-64
2022/05/02 08:47:46;;;;;;;1.50;1.00;;;13.30;99.90;;;;;;5052931;28;20517;-63
2022/05/02 08:50:41;;;;;;;1.70;1.03;;;13.20;99.90;;;;;;5050182;28;20535;-63
2022/05/02 08:54:00;;;;;;;1.63;0.90;;;13.20;99.90;;;;;;5050572;28;20464;-63
2022/05/02 08:56:46;;;;;;;1.53;1.20;;;13.10;99.90;;;;;;5057224;28;20520;-63
2022/05/02 08:59:43;;;;;;;1.77;0.83;;;12.90;99.90;;;;;;5061062;28;21026;-63
2022/05/02 09:02:49;;;;;;;1.00;0.80;;;12.90;99.90;;;;;;5060787;28;20894;-63
2022/05/02 09:05:46;;;;;;;0.97;0.70;;;12.70;99.90;;;;;;5060678;28;20475;-63
2022/05/02 09:09:10;;;;;;;0.70;0.70;;;12.70;99.90;;;;;;5050341;28;20475;-63
2022/05/02 09:12:08;;;;;;;0.90;0.90;;;12.70;99.90;;;;;;5058963;28;20464;-63
2022/05/02 09:15:03;;;;;;;0.90;0.90;;;12.60;99.90;;;;;;5030171;28;20491;-63
2022/05/02 09:18:09;;;;;;;1.27;1.00;;;12.50;99.90;;;;;;5061459;28;20464;-63
2022/05/02 09:20:58;;;;;;;0.70;0.70;;;12.30;99.90;;;;;;5062922;28;20483;-63
2022/05/02 09:24:15;;;;;;;0.80;0.67;;;12.20;99.90;;;;;;5059874;28;20872;-63
2022/05/02 09:27:26;;;;;;;2.53;1.03;;;12.10;99.90;;;;;;5059239;28;20461;-63
2022/05/02 09:30:38;;;;;;;1.00;1.00;;;12.00;99.90;;;;;;5050814;28;20459;-63
2022/05/02 09:33:36;;;;;;;2.20;1.17;;;11.90;99.90;;;;;;5062439;28;20590;-64
2022/05/02 09:36:24;;;;;;;2.57;1.10;;;11.90;99.90;;;;;;5062991;28;20448;-64
2022/05/02 09:39:09;;;;;;;1.10;1.00;;;11.90;99.90;;;;;;5061148;28;20931;-63
2022/05/02 09:42:16;;;;;;;1.50;1.07;;;11.80;99.90;;;;;;5062964;28;20495;-64
2022/05/02 09:52:08;;;;;;;3.20;1.60;;;11.80;99.90;;;;;;5055714;28;20464;-63
2022/05/02 09:58:00;;;;;;;3.07;1.30;;;11.70;99.90;;;;;;5018888;28;20466;-63
2022/05/02 10:03:41;;;;;;;4.67;2.50;;;11.80;99.90;;;;;;5014535;28;20538;-63
2022/05/02 10:06:15;;;;;;;5.40;3.60;;;11.80;99.90;;;;;;5020481;28;20453;-63
2022/05/02 10:08:52;;;;;;;2.40;2.20;;;11.80;99.90;;;;;;5016504;28;20449;-64
2022/05/02 10:11:52;;;;;;;2.47;2.17;;;11.70;99.90;;;;;;5016548;28;20622;-63
2022/05/02 10:14:44;;;;;;;3.63;1.67;;;11.70;99.90;;;;;;5008172;28;20482;-63
2022/05/02 10:17:36;;;;;;;1.30;1.20;;;11.70;99.90;;;;;;5019742;28;20921;-64
2022/05/02 10:20:16;;;;;;;1.30;1.20;;;11.70;99.90;;;;;;5007738;28;20474;-63
2022/05/02 10:22:59;;;;;;;2.13;1.93;;;11.70;99.90;;;;;;5015846;28;20859;-63
2022/05/02 10:25:37;;;;;;;8.00;6.50;;;11.70;99.90;;;;;;5018257;28;20474;-63
2022/05/02 10:28:25;;;;;;;4.13;3.03;;;11.60;99.90;;;;;;5019410;28;20473;-62
2022/05/02 10:31:05;;;;;;;2.97;2.03;;;11.50;99.90;;;;;;5044986;28;20830;-63
2022/05/02 10:33:45;;;;;;;1.90;1.50;;;11.40;99.90;;;;;;5060443;28;20468;-63
2022/05/02 10:36:20;;;;;;;1.60;1.30;;;11.30;99.90;;;;;;5061385;28;20453;-64
2022/05/02 10:38:55;;;;;;;2.73;1.30;;;11.30;99.90;;;;;;5061080;28;20550;-63
2022/05/02 10:41:38;;;;;;;2.33;1.50;;;11.30;99.90;;;;;;5060588;28;20994;-63
2022/05/02 10:44:11;;;;;;;3.40;1.20;;;11.30;99.90;;;;;;5059047;28;20558;-62
2022/05/02 10:46:46;;;;;;;2.80;1.30;;;11.30;99.90;;;;;;5061924;28;20463;-63
2022/05/02 10:49:27;;;;;;;1.50;1.40;;;11.20;99.90;;;;;;5060386;28;20470;-63
2022/05/02 10:52:04;;;;;;;3.00;1.77;;;11.10;99.90;;;;;;5055258;28;20487;-63
2022/05/02 10:54:44;;;;;;;2.10;1.90;;;11.00;99.90;;;;;;5059342;28;20997;-63
2022/05/02 10:57:26;;;;;;;2.87;1.80;;;10.90;99.90;;;;;;5062275;28;20478;-62
2022/05/02 11:00:01;;;;;;;3.23;1.40;;;10.90;99.90;;;;;;5061499;28;20574;-64
2022/05/02 11:02:51;;;;;;;1.67;1.57;;;10.80;99.90;;;;;;5061119;28;20629;-63
2022/05/02 11:05:28;;;;;;;2.03;1.60;;;10.70;99.90;;;;;;5060293;28;20653;-63
2022/05/02 11:08:10;;;;;;;1.70;1.60;;;10.50;99.90;;;;;;5061190;28;20482;-63
2022/05/02 11:10:48;;;;;;;1.87;1.30;;;10.40;99.90;;;;;;5059507;28;20467;-63
2022/05/02 11:13:27;;;;;;;1.10;1.00;;;10.40;99.90;;;;;;5059936;28;20472;-63
2022/05/02 11:16:08;;;;;;;1.13;0.57;;;10.30;99.90;;;;;;5054502;28;20837;-63
2022/05/02 11:21:59;;;;;;;1.00;0.90;;;9.90;99.90;;;;;;5060977;28;20494;-63
2022/05/02 11:24:40;;;;;;;0.75;0.65;;;9.70;99.90;;;;;;5048803;28;20639;-62
2022/05/02 11:27:24;;;;;;;0.73;0.73;;;9.60;99.90;;;;;;5064984;28;20209;-63
2022/05/02 11:30:03;;;;;;;0.80;0.70;;;9.50;99.90;;;;;;5063477;28;20791;-62
2022/05/02 11:32:45;;;;;;;1.30;0.85;;;9.60;99.90;;;;;;5064718;28;20206;-62
2022/05/02 11:35:20;;;;;;;1.27;0.70;;;9.40;99.90;;;;;;5064565;28;20645;-62
2022/05/02 11:37:57;;;;;;;2.95;0.80;;;9.40;99.90;;;;;;5064341;28;20467;-62
2022/05/02 11:40:33;;;;;;;0.60;0.60;;;9.30;99.90;;;;;;5063432;28;20201;-62
2022/05/02 11:43:05;;;;;;;0.90;0.57;;;9.30;99.90;;;;;;5063491;28;20243;-63
2022/05/02 11:45:44;;;;;;;0.75;0.75;;;9.30;99.90;;;;;;5065510;28;20455;-63
2022/05/02 11:48:41;;;;;;;0.90;0.83;;;9.30;99.90;;;;;;5063093;28;20210;-63
2022/05/02 11:51:23;;;;;;;0.70;0.70;;;9.30;99.90;;;;;;5055844;28;20448;-63
2022/05/02 11:53:59;;;;;;;0.75;0.70;;;9.30;99.90;;;;;;5061944;28;20210;-63
2022/05/02 11:56:37;;;;;;;1.40;0.70;;;9.30;99.90;;;;;;5061322;28;20271;-63
2022/05/02 11:59:13;;;;;;;0.82;0.82;;;9.20;99.90;;;;;;5063177;28;20213;-63
2022/05/02 12:01:47;;;;;;;0.77;0.77;;;9.30;99.90;;;;;;5063943;28;20240;-63
2022/05/02 12:04:24;;;;;;;1.27;0.70;;;9.20;99.90;;;;;;5064374;28;20547;-63
2022/05/02 12:07:05;;;;;;;0.68;0.68;;;9.20;99.90;;;;;;5063563;28;20456;-63
2022/05/02 12:09:40;;;;;;;0.90;0.90;;;9.20;99.90;;;;;;5063993;28;20213;-63
2022/05/02 12:12:11;;;;;;;0.65;0.65;;;9.20;99.90;;;;;;5064077;28;20225;-63
2022/05/02 12:14:43;;;;;;;3.08;0.57;;;9.10;99.90;;;;;;5064664;28;20232;-63
2022/05/02 12:17:13;;;;;;;0.75;0.47;;;9.10;99.90;;;;;;5064667;28;20220;-62
2022/05/02 12:19:44;;;;;;;0.95;0.47;;;9.00;99.90;;;;;;5064753;28;20272;-62
2022/05/02 12:22:19;;;;;;;0.57;0.50;;;9.00;99.90;;;;;;5060312;28;20295;-62
2022/05/02 12:24:54;;;;;;;0.40;0.30;;;8.90;99.90;;;;;;5063159;28;20218;-62
2022/05/02 12:27:27;;;;;;;0.60;0.40;;;8.90;99.90;;;;;;5057109;28;20201;-63
2022/05/02 12:30:01;;;;;;;0.75;0.50;;;8.90;99.90;;;;;;5063814;28;20206;-63
2022/05/02 12:32:33;;;;;;;1.52;0.52;;;8.90;99.90;;;;;;5063925;28;20214;-63
2022/05/02 12:35:07;;;;;;;0.45;0.45;;;8.90;99.90;;;;;;5063246;28;20281;-63
2022/05/02 12:37:42;;;;;;;0.68;0.68;;;8.90;99.90;;;;;;5064163;28;20194;-63
2022/05/02 12:40:18;;;;;;;3.47;0.90;;;8.90;99.90;;;;;;5061926;28;20212;-63
2022/05/02 12:42:52;;;;;;;3.60;0.50;;;9.00;99.90;;;;;;5060945;28;20232;-64
2022/05/02 12:45:26;;;;;;;0.30;0.30;;;8.90;99.90;;;;;;5063335;28;20218;-65
2022/05/02 12:47:58;;;;;;;1.05;0.40;;;8.90;99.90;;;;;;5061409;28;20205;-61
2022/05/02 12:50:30;;;;;;;0.43;0.43;;;8.90;99.90;;;;;;5063490;28;20204;-62
2022/05/02 12:53:05;;;;;;;1.35;0.60;;;8.90;99.90;;;;;;5062154;28;20202;-63
2022/05/02 12:55:38;;;;;;;0.60;0.40;;;8.90;99.90;;;;;;5062383;28;20285;-63
2022/05/02 13:01:04;;;;;;;0.32;0.32;;;8.90;99.90;;;;;;5061337;28;20206;-62
2022/05/02 13:03:38;;;;;;;0.70;0.50;;;8.80;99.90;;;;;;5056266;28;20787;-63
2022/05/02 13:06:12;;;;;;;0.40;0.40;;;8.80;99.90;;;;;;5059122;28;20639;-63
2022/05/02 13:08:44;;;;;;;0.40;0.30;;;8.80;99.90;;;;;;5061100;28;20201;-63
2022/05/02 13:11:21;;;;;;;0.50;0.45;;;8.80;99.90;;;;;;5061768;28;20202;-63
2022/05/02 13:13:53;;;;;;;0.40;0.30;;;8.70;99.90;;;;;;5064082;28;20213;-63
2022/05/02 13:16:28;;;;;;;1.45;0.43;;;8.80;99.90;;;;;;5063161;28;20233;-63
2022/05/02 13:19:03;;;;;;;0.40;0.40;;;8.80;99.90;;;;;;5062154;28;20269;-63
2022/05/02 13:21:34;;;;;;;0.68;0.30;;;8.80;99.90;;;;;;5062834;28;21015;-64
2022/05/02 13:24:08;;;;;;;0.52;0.30;;;8.80;99.90;;;;;;5061089;28;20213;-64
2022/05/02 13:26:56;;;;;;;0.40;0.40;;;8.80;99.90;;;;;;5063326;28;20212;-63
2022/05/02 13:29:46;;;;;;;0.50;0.50;;;8.80;99.90;;;;;;5062852;28;20236;-63
2022/05/02 13:32:24;;;;;;;0.43;0.40;;;8.90;99.90;;;;;;5063374;28;20269;-63
2022/05/02 13:35:11;;;;;;;0.50;0.40;;;8.90;99.90;;;;;;5050892;28;20213;-64
2022/05/02 13:37:57;;;;;;;0.45;0.35;;;8.80;99.90;;;;;;5062352;28;20210;-63
2022/05/02 13:40:43;;;;;;;0.40;0.40;;;8.80;99.90;;;;;;5046182;28;20639;-64
2022/05/02 13:43:21;;;;;;;0.50;0.40;;;8.90;99.90;;;;;;5060543;28;20310;-64
2022/05/02 13:45:57;;;;;;;0.40;0.40;;;8.90;99.90;;;;;;5062441;28;20240;-63
2022/05/02 13:48:36;;;;;;;0.40;0.40;;;9.00;99.90;;;;;;5060652;28;20197;-63
2022/05/02 13:51:20;;;;;;;0.80;0.60;;;9.10;99.90;;;;;;5061718;28;20601;-64
2022/05/02 13:53:57;;;;;;;0.93;0.70;;;9.00;99.90;;;;;;5060126;28;20205;-64
2022/05/02 13:56:38;;;;;;;0.85;0.45;;;9.10;99.90;;;;;;5061672;28;20215;-63
2022/05/02 13:59:19;;;;;;;1.45;0.60;;;9.10;99.90;;;;;;5052279;28;20243;-64
2022/05/02 14:02:01;;;;;;;1.77;0.55;;;9.20;99.90;;;;;;5055369;28;20565;-63
2022/05/02 14:04:41;;;;;;;0.90;0.50;;;9.20;99.90;;;;;;5054414;28;20202;-64
2022/05/02 14:07:14;;;;;;;0.80;0.60;;;9.20;99.90;;;;;;5061063;28;20254;-64
2022/05/02 14:09:53;;;;;;;0.93;0.40;;;9.20;99.90;;;;;;5062261;28;20212;-64
2022/05/02 14:12:34;;;;;;;2.55;0.50;;;9.40;99.90;;;;;;5067045;28;20479;-64